sensor_id;sensor_type;location;lat;lon;timestamp;temperature;humidity
11497;DHT22;5805;51.542;7.230;2023-02-24T00:01:56;9.00;99.90
11497;DHT22;5805;51.542;7.230;2023-02-24T00:04:22;9.00;99.90
11497;DHT22;5805;51.542;7.230;2023-02-24T00:06:48;9.10;99.90
11497;DHT22;5805;51.542;7.230;2023-02-24T00:09:16;9.00;99.90
11497;DHT22;5805;51.542;7.230;2023-02-24T00:11:46;9.00;99.90
11497;DHT22;5805;51.542;7.230;2023-02-24T00:14:14;8.90;99.90
11497;DHT22;5805;51.542;7.230;2023-02-24T00:16:42;8.90;99.90
11497;DHT22;5805;51.542;7.230;2023-02-24T00:19:08;8.90;99.90
11497;DHT22;5805;51.542;7.230;2023-02-24T00:21:35;8.90;99.90
11497;DHT22;5805;51.542;7.230;2023-02-24T00:24:01;9.00;99.90
11497;DHT22;5805;51.542;7.230;2023-02-24T00:26:30;8.80;99.90
11497;DHT22;5805;51.542;7.230;2023-02-24T00:28:55;8.80;99.90
11497;DHT22;5805;51.542;7.230;2023-02-24T00:31:21;8.70;99.90
11497;DHT22;5805;51.542;7.230;2023-02-24T00:33:49;8.60;99.90
11497;DHT22;5805;51.542;7.230;2023-02-24T00:36:16;8.50;99.90
11497;DHT22;5805;51.542;7.230;2023-02-24T00:38:42;8.50;99.90
11497;DHT22;5805;51.542;7.230;2023-02-24T00:41:09;8.50;99.90
11497;DHT22;5805;51.542;7.230;2023-02-24T00:43:41;8.50;99.90
11497;DHT22;5805;51.542;7.230;2023-02-24T00:46:07;8.50;99.90
11497;DHT22;5805;51.542;7.230;2023-02-24T00:48:32;8.50;99.90
11497;DHT22;5805;51.542;7.230;2023-02-24T00:51:01;8.60;99.90
11497;DHT22;5805;51.542;7.230;2023-02-24T00:53:27;8.60;99.90
11497;DHT22;5805;51.542;7.230;2023-02-24T00:55:58;8.60;99.90
11497;DHT22;5805;51.542;7.230;2023-02-24T00:58:24;9.20;99.90
11497;DHT22;5805;51.542;7.230;2023-02-24T01:00:49;8.70;99.90
11497;DHT22;5805;51.542;7.230;2023-02-24T01:03:15;8.70;99.90
11497;DHT22;5805;51.542;7.230;2023-02-24T01:05:41;8.60;99.90
11497;DHT22;5805;51.542;7.230;2023-02-24T01:08:08;8.50;99.90
11497;DHT22;5805;51.542;7.230;2023-02-24T01:10:34;8.50;99.90
11497;DHT22;5805;51.542;7.230;2023-02-24T01:12:59;8.40;99.90
11497;DHT22;5805;51.542;7.230;2023-02-24T01:15:25;8.40;99.90
11497;DHT22;5805;51.542;7.230;2023-02-24T01:17:51;8.40;99.90
11497;DHT22;5805;51.542;7.230;2023-02-24T01:20:16;8.40;99.90
11497;DHT22;5805;51.542;7.230;2023-02-24T01:22:44;8.40;99.90
11497;DHT22;5805;51.542;7.230;2023-02-24T01:25:11;8.40;99.90
11497;DHT22;5805;51.542;7.230;2023-02-24T01:27:37;8.40;99.90
11497;DHT22;5805;51.542;7.230;2023-02-24T01:30:03;8.40;99.90
11497;DHT22;5805;51.542;7.230;2023-02-24T01:32:29;8.50;99.90
11497;DHT22;5805;51.542;7.230;2023-02-24T01:34:54;8.50;99.90
11497;DHT22;5805;51.542;7.230;2023-02-24T01:37:20;8.50;99.90
11497;DHT22;5805;51.542;7.230;2023-02-24T01:39:47;8.50;99.90
11497;DHT22;5805;51.542;7.230;2023-02-24T01:42:16;8.50;99.90
11497;DHT22;5805;51.542;7.230;2023-02-24T01:45:12;8.50;99.90
11497;DHT22;5805;51.542;7.230;2023-02-24T01:47:39;8.50;99.90
11497;DHT22;5805;51.542;7.230;2023-02-24T01:50:05;8.40;99.90
11497;DHT22;5805;51.542;7.230;2023-02-24T01:52:35;8.40;99.90
11497;DHT22;5805;51.542;7.230;2023-02-24T01:55:06;8.40;99.90
11497;DHT22;5805;51.542;7.230;2023-02-24T01:57:36;8.30;99.90
11497;DHT22;5805;51.542;7.230;2023-02-24T02:00:04;8.30;99.90
11497;DHT22;5805;51.542;7.230;2023-02-24T02:02:32;8.30;99.90
11497;DHT22;5805;51.542;7.230;2023-02-24T02:05:03;8.30;99.90
11497;DHT22;5805;51.542;7.230;2023-02-24T02:07:30;8.30;99.90
11497;DHT22;5805;51.542;7.230;2023-02-24T02:09:58;8.20;99.90
11497;DHT22;5805;51.542;7.230;2023-02-24T02:12:25;8.20;99.90
11497;DHT22;5805;51.542;7.230;2023-02-24T02:14:54;8.10;99.90
11497;DHT22;5805;51.542;7.230;2023-02-24T02:17:27;8.10;99.90
11497;DHT22;5805;51.542;7.230;2023-02-24T02:20:20;8.10;99.90
11497;DHT22;5805;51.542;7.230;2023-02-24T02:23:13;8.00;99.90
11497;DHT22;5805;51.542;7.230;2023-02-24T02:25:57;7.90;99.90
11497;DHT22;5805;51.542;7.230;2023-02-24T02:28:48;7.90;99.90
11497;DHT22;5805;51.542;7.230;2023-02-24T02:31:47;7.90;99.90
11497;DHT22;5805;51.542;7.230;2023-02-24T02:34:33;8.00;99.90
11497;DHT22;5805;51.542;7.230;2023-02-24T02:37:05;7.90;99.90
11497;DHT22;5805;51.542;7.230;2023-02-24T02:39:40;7.90;99.90
11497;DHT22;5805;51.542;7.230;2023-02-24T02:42:16;7.80;99.90
11497;DHT22;5805;51.542;7.230;2023-02-24T02:44:50;7.90;99.90
11497;DHT22;5805;51.542;7.230;2023-02-24T02:47:22;7.90;99.90
11497;DHT22;5805;51.542;7.230;2023-02-24T02:49:54;7.90;99.90
11497;DHT22;5805;51.542;7.230;2023-02-24T02:52:26;7.90;99.90
11497;DHT22;5805;51.542;7.230;2023-02-24T02:54:55;7.80;99.90
11497;DHT22;5805;51.542;7.230;2023-02-24T02:57:25;7.80;99.90
11497;DHT22;5805;51.542;7.230;2023-02-24T02:59:55;7.80;99.90
11497;DHT22;5805;51.542;7.230;2023-02-24T03:02:26;7.70;99.90
11497;DHT22;5805;51.542;7.230;2023-02-24T03:04:57;7.70;99.90
11497;DHT22;5805;51.542;7.230;2023-02-24T03:07:27;7.70;99.90
11497;DHT22;5805;51.542;7.230;2023-02-24T03:09:58;8.10;99.90
11497;DHT22;5805;51.542;7.230;2023-02-24T03:12:26;7.70;99.90
11497;DHT22;5805;51.542;7.230;2023-02-24T03:14:57;7.70;99.90
11497;DHT22;5805;51.542;7.230;2023-02-24T03:17:25;7.70;99.90
11497;DHT22;5805;51.542;7.230;2023-02-24T03:19:56;7.60;99.90
11497;DHT22;5805;51.542;7.230;2023-02-24T03:22:29;7.50;99.90
11497;DHT22;5805;51.542;7.230;2023-02-24T03:24:57;7.40;99.90
11497;DHT22;5805;51.542;7.230;2023-02-24T03:27:27;7.30;99.90
11497;DHT22;5805;51.542;7.230;2023-02-24T03:29:56;7.50;99.90
11497;DHT22;5805;51.542;7.230;2023-02-24T03:32:27;7.40;99.90
11497;DHT22;5805;51.542;7.230;2023-02-24T03:34:58;7.50;99.90
11497;DHT22;5805;51.542;7.230;2023-02-24T03:37:26;7.60;99.90
11497;DHT22;5805;51.542;7.230;2023-02-24T03:39:56;7.50;99.90
11497;DHT22;5805;51.542;7.230;2023-02-24T03:42:22;7.50;99.90
11497;DHT22;5805;51.542;7.230;2023-02-24T03:44:50;8.00;99.90
11497;DHT22;5805;51.542;7.230;2023-02-24T03:47:16;7.60;99.90
11497;DHT22;5805;51.542;7.230;2023-02-24T03:49:42;7.70;99.90
11497;DHT22;5805;51.542;7.230;2023-02-24T03:52:17;7.70;99.90
11497;DHT22;5805;51.542;7.230;2023-02-24T03:54:55;7.70;99.90
11497;DHT22;5805;51.542;7.230;2023-02-24T03:57:28;7.70;99.90
11497;DHT22;5805;51.542;7.230;2023-02-24T04:00:03;7.70;99.90
11497;DHT22;5805;51.542;7.230;2023-02-24T04:02:32;7.70;99.90
11497;DHT22;5805;51.542;7.230;2023-02-24T04:05:05;7.70;99.90
11497;DHT22;5805;51.542;7.230;2023-02-24T04:07:39;7.60;99.90
11497;DHT22;5805;51.542;7.230;2023-02-24T04:10:10;7.50;99.90
11497;DHT22;5805;51.542;7.230;2023-02-24T04:12:42;7.60;99.90
11497;DHT22;5805;51.542;7.230;2023-02-24T04:15:14;7.70;99.90
11497;DHT22;5805;51.542;7.230;2023-02-24T04:17:44;7.60;99.90
11497;DHT22;5805;51.542;7.230;2023-02-24T04:20:14;7.60;99.90
11497;DHT22;5805;51.542;7.230;2023-02-24T04:22:45;7.70;99.90
11497;DHT22;5805;51.542;7.230;2023-02-24T04:25:11;7.70;99.90
11497;DHT22;5805;51.542;7.230;2023-02-24T04:27:40;7.60;99.90
11497;DHT22;5805;51.542;7.230;2023-02-24T04:30:08;7.60;99.90
11497;DHT22;5805;51.542;7.230;2023-02-24T04:32:36;7.60;99.90
11497;DHT22;5805;51.542;7.230;2023-02-24T04:35:03;7.60;99.90
11497;DHT22;5805;51.542;7.230;2023-02-24T04:37:29;7.70;99.90
11497;DHT22;5805;51.542;7.230;2023-02-24T04:39:56;7.70;99.90
11497;DHT22;5805;51.542;7.230;2023-02-24T04:42:22;7.70;99.90
11497;DHT22;5805;51.542;7.230;2023-02-24T04:44:48;7.70;99.90
11497;DHT22;5805;51.542;7.230;2023-02-24T04:47:14;8.20;99.90
11497;DHT22;5805;51.542;7.230;2023-02-24T04:49:39;7.80;99.90
11497;DHT22;5805;51.542;7.230;2023-02-24T04:52:05;7.90;99.90
11497;DHT22;5805;51.542;7.230;2023-02-24T04:54:31;7.90;99.90
11497;DHT22;5805;51.542;7.230;2023-02-24T04:56:58;8.00;99.90
11497;DHT22;5805;51.542;7.230;2023-02-24T04:59:24;7.90;99.90
11497;DHT22;5805;51.542;7.230;2023-02-24T05:01:49;7.90;99.90
11497;DHT22;5805;51.542;7.230;2023-02-24T05:04:15;7.90;99.90
11497;DHT22;5805;51.542;7.230;2023-02-24T05:06:41;7.90;99.90
11497;DHT22;5805;51.542;7.230;2023-02-24T05:09:06;7.80;99.90
11497;DHT22;5805;51.542;7.230;2023-02-24T05:11:32;7.80;99.90
11497;DHT22;5805;51.542;7.230;2023-02-24T05:13:59;8.50;99.90
11497;DHT22;5805;51.542;7.230;2023-02-24T05:16:25;7.90;99.90
11497;DHT22;5805;51.542;7.230;2023-02-24T05:18:50;7.80;99.90
11497;DHT22;5805;51.542;7.230;2023-02-24T05:21:16;7.90;99.90
11497;DHT22;5805;51.542;7.230;2023-02-24T05:23:45;7.90;99.90
11497;DHT22;5805;51.542;7.230;2023-02-24T05:26:13;7.90;99.90
11497;DHT22;5805;51.542;7.230;2023-02-24T05:28:39;7.90;99.90
11497;DHT22;5805;51.542;7.230;2023-02-24T05:31:10;8.10;99.90
11497;DHT22;5805;51.542;7.230;2023-02-24T05:33:36;7.90;99.90
11497;DHT22;5805;51.542;7.230;2023-02-24T05:36:04;7.90;99.90
11497;DHT22;5805;51.542;7.230;2023-02-24T05:38:29;7.90;99.90
11497;DHT22;5805;51.542;7.230;2023-02-24T05:41:03;7.90;99.90
11497;DHT22;5805;51.542;7.230;2023-02-24T05:43:31;7.80;99.90
11497;DHT22;5805;51.542;7.230;2023-02-24T05:45:59;7.80;99.90
11497;DHT22;5805;51.542;7.230;2023-02-24T05:48:26;7.90;99.90
11497;DHT22;5805;51.542;7.230;2023-02-24T05:50:51;7.90;99.90
11497;DHT22;5805;51.542;7.230;2023-02-24T05:53:17;7.80;99.90
11497;DHT22;5805;51.542;7.230;2023-02-24T05:55:43;7.80;99.90
11497;DHT22;5805;51.542;7.230;2023-02-24T05:58:13;7.80;99.90
11497;DHT22;5805;51.542;7.230;2023-02-24T06:00:39;7.80;99.90
11497;DHT22;5805;51.542;7.230;2023-02-24T06:03:05;7.80;99.90
11497;DHT22;5805;51.542;7.230;2023-02-24T06:05:32;7.80;99.90
11497;DHT22;5805;51.542;7.230;2023-02-24T06:07:58;8.20;99.90
11497;DHT22;5805;51.542;7.230;2023-02-24T06:10:23;7.80;99.90
11497;DHT22;5805;51.542;7.230;2023-02-24T06:12:49;7.80;99.90
11497;DHT22;5805;51.542;7.230;2023-02-24T06:15:15;7.80;99.90
11497;DHT22;5805;51.542;7.230;2023-02-24T06:17:40;7.80;99.90
11497;DHT22;5805;51.542;7.230;2023-02-24T06:20:07;7.80;99.90
11497;DHT22;5805;51.542;7.230;2023-02-24T06:22:34;7.80;99.90
11497;DHT22;5805;51.542;7.230;2023-02-24T06:25:00;7.80;99.90
11497;DHT22;5805;51.542;7.230;2023-02-24T06:27:26;7.80;99.90
11497;DHT22;5805;51.542;7.230;2023-02-24T06:29:53;7.80;99.90
11497;DHT22;5805;51.542;7.230;2023-02-24T06:32:20;7.80;99.90
11497;DHT22;5805;51.542;7.230;2023-02-24T06:34:46;7.80;99.90
11497;DHT22;5805;51.542;7.230;2023-02-24T06:37:13;7.80;99.90
11497;DHT22;5805;51.542;7.230;2023-02-24T06:39:41;7.80;99.90
11497;DHT22;5805;51.542;7.230;2023-02-24T06:42:07;7.70;99.90
11497;DHT22;5805;51.542;7.230;2023-02-24T06:44:34;7.70;99.90
11497;DHT22;5805;51.542;7.230;2023-02-24T06:47:00;7.60;99.90
11497;DHT22;5805;51.542;7.230;2023-02-24T06:49:26;7.70;99.90
11497;DHT22;5805;51.542;7.230;2023-02-24T06:51:52;7.60;99.90
11497;DHT22;5805;51.542;7.230;2023-02-24T06:54:18;7.60;99.90
11497;DHT22;5805;51.542;7.230;2023-02-24T06:56:45;7.60;99.90
11497;DHT22;5805;51.542;7.230;2023-02-24T06:59:11;7.60;99.90
11497;DHT22;5805;51.542;7.230;2023-02-24T07:01:37;7.60;99.90
11497;DHT22;5805;51.542;7.230;2023-02-24T07:04:03;7.60;99.90
11497;DHT22;5805;51.542;7.230;2023-02-24T07:06:31;7.60;99.90
11497;DHT22;5805;51.542;7.230;2023-02-24T07:08:57;7.60;99.90
11497;DHT22;5805;51.542;7.230;2023-02-24T07:11:24;10.20;99.90
11497;DHT22;5805;51.542;7.230;2023-02-24T07:13:51;7.60;99.90
11497;DHT22;5805;51.542;7.230;2023-02-24T07:16:18;7.60;99.90
11497;DHT22;5805;51.542;7.230;2023-02-24T07:18:44;7.50;99.90
11497;DHT22;5805;51.542;7.230;2023-02-24T07:21:10;7.50;99.90
11497;DHT22;5805;51.542;7.230;2023-02-24T07:23:36;7.50;99.90
11497;DHT22;5805;51.542;7.230;2023-02-24T07:26:05;7.60;99.90
11497;DHT22;5805;51.542;7.230;2023-02-24T07:28:32;7.60;99.90
11497;DHT22;5805;51.542;7.230;2023-02-24T07:30:59;7.70;99.90
11497;DHT22;5805;51.542;7.230;2023-02-24T07:33:24;7.70;99.90
11497;DHT22;5805;51.542;7.230;2023-02-24T07:35:50;7.70;99.90
11497;DHT22;5805;51.542;7.230;2023-02-24T07:38:16;7.80;99.90
11497;DHT22;5805;51.542;7.230;2023-02-24T07:40:42;7.90;99.90
11497;DHT22;5805;51.542;7.230;2023-02-24T07:43:11;8.00;99.90
11497;DHT22;5805;51.542;7.230;2023-02-24T07:45:36;8.10;99.90
11497;DHT22;5805;51.542;7.230;2023-02-24T07:48:03;8.10;99.90
11497;DHT22;5805;51.542;7.230;2023-02-24T07:50:29;8.10;99.90
11497;DHT22;5805;51.542;7.230;2023-02-24T07:52:55;8.10;99.90
11497;DHT22;5805;51.542;7.230;2023-02-24T07:55:20;8.10;99.90
11497;DHT22;5805;51.542;7.230;2023-02-24T07:57:46;8.20;99.90
11497;DHT22;5805;51.542;7.230;2023-02-24T08:00:14;8.20;99.90
11497;DHT22;5805;51.542;7.230;2023-02-24T08:02:40;8.20;99.90
11497;DHT22;5805;51.542;7.230;2023-02-24T08:05:07;8.30;99.90
11497;DHT22;5805;51.542;7.230;2023-02-24T08:07:34;8.30;99.90
11497;DHT22;5805;51.542;7.230;2023-02-24T08:09:59;8.30;99.90
11497;DHT22;5805;51.542;7.230;2023-02-24T08:12:25;8.20;99.90
11497;DHT22;5805;51.542;7.230;2023-02-24T08:14:51;8.20;99.90
11497;DHT22;5805;51.542;7.230;2023-02-24T08:17:19;8.20;99.90
11497;DHT22;5805;51.542;7.230;2023-02-24T08:19:45;8.20;99.90
11497;DHT22;5805;51.542;7.230;2023-02-24T08:22:14;8.20;99.90
11497;DHT22;5805;51.542;7.230;2023-02-24T08:24:40;8.30;99.90
11497;DHT22;5805;51.542;7.230;2023-02-24T08:27:06;8.40;99.90
11497;DHT22;5805;51.542;7.230;2023-02-24T08:29:32;8.40;99.90
11497;DHT22;5805;51.542;7.230;2023-02-24T08:31:58;8.40;99.90
11497;DHT22;5805;51.542;7.230;2023-02-24T08:34:24;8.40;99.90
11497;DHT22;5805;51.542;7.230;2023-02-24T08:36:50;8.30;99.90
11497;DHT22;5805;51.542;7.230;2023-02-24T08:39:17;8.30;99.90
11497;DHT22;5805;51.542;7.230;2023-02-24T08:41:43;8.30;99.90
11497;DHT22;5805;51.542;7.230;2023-02-24T08:44:10;8.30;99.90
11497;DHT22;5805;51.542;7.230;2023-02-24T08:46:36;8.20;99.90
11497;DHT22;5805;51.542;7.230;2023-02-24T08:49:02;8.30;99.90
11497;DHT22;5805;51.542;7.230;2023-02-24T08:51:30;8.30;99.90
11497;DHT22;5805;51.542;7.230;2023-02-24T08:53:58;8.30;99.90
11497;DHT22;5805;51.542;7.230;2023-02-24T08:56:28;8.30;99.90
11497;DHT22;5805;51.542;7.230;2023-02-24T08:58:55;8.30;99.90
11497;DHT22;5805;51.542;7.230;2023-02-24T09:01:24;8.30;99.90
11497;DHT22;5805;51.542;7.230;2023-02-24T09:03:55;8.40;99.90
11497;DHT22;5805;51.542;7.230;2023-02-24T09:06:25;8.40;99.90
11497;DHT22;5805;51.542;7.230;2023-02-24T09:08:53;8.40;99.90
11497;DHT22;5805;51.542;7.230;2023-02-24T09:11:19;8.50;99.90
11497;DHT22;5805;51.542;7.230;2023-02-24T09:13:46;8.50;99.90
11497;DHT22;5805;51.542;7.230;2023-02-24T09:16:14;8.60;99.90
11497;DHT22;5805;51.542;7.230;2023-02-24T09:18:39;8.60;99.90
11497;DHT22;5805;51.542;7.230;2023-02-24T09:21:09;8.70;99.90
11497;DHT22;5805;51.542;7.230;2023-02-24T09:23:35;8.60;99.90
11497;DHT22;5805;51.542;7.230;2023-02-24T09:26:01;8.60;99.50
11497;DHT22;5805;51.542;7.230;2023-02-24T09:28:26;8.60;99.90
11497;DHT22;5805;51.542;7.230;2023-02-24T09:30:55;8.60;99.90
11497;DHT22;5805;51.542;7.230;2023-02-24T09:33:24;8.60;99.90
11497;DHT22;5805;51.542;7.230;2023-02-24T09:35:53;8.60;99.90
11497;DHT22;5805;51.542;7.230;2023-02-24T09:38:21;8.60;99.90
11497;DHT22;5805;51.542;7.230;2023-02-24T09:40:48;8.60;99.90
11497;DHT22;5805;51.542;7.230;2023-02-24T09:43:15;8.70;99.90
11497;DHT22;5805;51.542;7.230;2023-02-24T09:48:46;8.70;99.90
11497;DHT22;5805;51.542;7.230;2023-02-24T09:51:15;8.80;99.90
11497;DHT22;5805;51.542;7.230;2023-02-24T09:53:41;8.80;99.90
11497;DHT22;5805;51.542;7.230;2023-02-24T09:56:14;8.80;99.90
11497;DHT22;5805;51.542;7.230;2023-02-24T09:58:43;8.90;99.90
11497;DHT22;5805;51.542;7.230;2023-02-24T10:01:22;8.80;99.90
11497;DHT22;5805;51.542;7.230;2023-02-24T10:03:55;8.80;99.90
11497;DHT22;5805;51.542;7.230;2023-02-24T10:06:24;8.80;99.90
11497;DHT22;5805;51.542;7.230;2023-02-24T10:08:55;8.80;99.90
11497;DHT22;5805;51.542;7.230;2023-02-24T10:11:25;8.60;99.90
11497;DHT22;5805;51.542;7.230;2023-02-24T10:13:53;8.60;99.90
11497;DHT22;5805;51.542;7.230;2023-02-24T10:16:22;8.60;99.90
11497;DHT22;5805;51.542;7.230;2023-02-24T10:18:53;8.50;99.90
11497;DHT22;5805;51.542;7.230;2023-02-24T10:21:25;8.50;99.90
11497;DHT22;5805;51.542;7.230;2023-02-24T10:24:00;8.50;99.90
11497;DHT22;5805;51.542;7.230;2023-02-24T10:26:32;8.40;99.90
11497;DHT22;5805;51.542;7.230;2023-02-24T10:29:07;8.50;99.90
11497;DHT22;5805;51.542;7.230;2023-02-24T10:31:42;8.40;99.90
11497;DHT22;5805;51.542;7.230;2023-02-24T10:34:13;8.40;99.90
11497;DHT22;5805;51.542;7.230;2023-02-24T10:36:39;8.40;99.90
11497;DHT22;5805;51.542;7.230;2023-02-24T10:39:12;8.40;99.90
11497;DHT22;5805;51.542;7.230;2023-02-24T10:41:44;8.50;99.90
11497;DHT22;5805;51.542;7.230;2023-02-24T10:44:10;8.50;99.90
11497;DHT22;5805;51.542;7.230;2023-02-24T10:46:36;8.60;99.90
11497;DHT22;5805;51.542;7.230;2023-02-24T10:49:03;8.60;99.90
11497;DHT22;5805;51.542;7.230;2023-02-24T10:51:34;8.50;99.90
11497;DHT22;5805;51.542;7.230;2023-02-24T10:54:11;8.60;99.90
11497;DHT22;5805;51.542;7.230;2023-02-24T10:56:41;8.90;99.90
11497;DHT22;5805;51.542;7.230;2023-02-24T10:59:09;8.50;99.90
11497;DHT22;5805;51.542;7.230;2023-02-24T11:01:36;8.50;99.90
11497;DHT22;5805;51.542;7.230;2023-02-24T11:04:02;8.50;99.90
11497;DHT22;5805;51.542;7.230;2023-02-24T11:06:33;8.40;99.90
11497;DHT22;5805;51.542;7.230;2023-02-24T11:08:59;8.50;99.90
11497;DHT22;5805;51.542;7.230;2023-02-24T11:11:29;8.50;99.90
11497;DHT22;5805;51.542;7.230;2023-02-24T11:13:58;8.50;99.90
11497;DHT22;5805;51.542;7.230;2023-02-24T11:16:24;8.50;99.90
11497;DHT22;5805;51.542;7.230;2023-02-24T11:18:50;8.40;99.90
11497;DHT22;5805;51.542;7.230;2023-02-24T11:21:16;8.40;99.90
11497;DHT22;5805;51.542;7.230;2023-02-24T11:23:46;8.30;99.90
11497;DHT22;5805;51.542;7.230;2023-02-24T11:26:14;8.20;99.90
11497;DHT22;5805;51.542;7.230;2023-02-24T11:28:53;8.20;99.90
11497;DHT22;5805;51.542;7.230;2023-02-24T11:31:32;8.20;99.90
11497;DHT22;5805;51.542;7.230;2023-02-24T11:34:06;8.20;99.90
11497;DHT22;5805;51.542;7.230;2023-02-24T11:36:39;8.10;99.90
11497;DHT22;5805;51.542;7.230;2023-02-24T11:39:22;8.10;99.90
11497;DHT22;5805;51.542;7.230;2023-02-24T11:41:55;8.20;99.90
11497;DHT22;5805;51.542;7.230;2023-02-24T11:44:27;8.20;99.90
11497;DHT22;5805;51.542;7.230;2023-02-24T11:46:56;8.10;99.90
11497;DHT22;5805;51.542;7.230;2023-02-24T11:49:28;8.10;99.90
11497;DHT22;5805;51.542;7.230;2023-02-24T11:51:54;8.10;99.90
11497;DHT22;5805;51.542;7.230;2023-02-24T11:54:24;8.20;99.90
11497;DHT22;5805;51.542;7.230;2023-02-24T11:56:53;8.20;99.90
11497;DHT22;5805;51.542;7.230;2023-02-24T11:59:28;8.20;99.90
11497;DHT22;5805;51.542;7.230;2023-02-24T12:01:59;8.30;99.90
11497;DHT22;5805;51.542;7.230;2023-02-24T12:04:28;8.20;99.90
11497;DHT22;5805;51.542;7.230;2023-02-24T12:06:58;8.20;99.90
11497;DHT22;5805;51.542;7.230;2023-02-24T12:09:30;8.20;99.90
11497;DHT22;5805;51.542;7.230;2023-02-24T12:12:00;8.10;99.90
11497;DHT22;5805;51.542;7.230;2023-02-24T12:14:32;8.10;99.90
11497;DHT22;5805;51.542;7.230;2023-02-24T12:17:09;8.00;99.90
11497;DHT22;5805;51.542;7.230;2023-02-24T12:19:48;8.00;99.90
11497;DHT22;5805;51.542;7.230;2023-02-24T12:22:16;8.00;99.90
11497;DHT22;5805;51.542;7.230;2023-02-24T12:24:47;8.10;99.90
11497;DHT22;5805;51.542;7.230;2023-02-24T12:27:19;8.10;99.90
11497;DHT22;5805;51.542;7.230;2023-02-24T12:30:05;8.10;99.90
11497;DHT22;5805;51.542;7.230;2023-02-24T12:32:46;8.00;99.90
11497;DHT22;5805;51.542;7.230;2023-02-24T12:35:27;7.90;99.90
11497;DHT22;5805;51.542;7.230;2023-02-24T12:38:07;7.80;99.90
11497;DHT22;5805;51.542;7.230;2023-02-24T12:40:42;7.80;99.90
11497;DHT22;5805;51.542;7.230;2023-02-24T12:43:21;7.80;99.90
11497;DHT22;5805;51.542;7.230;2023-02-24T12:45:54;7.80;99.90
11497;DHT22;5805;51.542;7.230;2023-02-24T12:48:39;7.70;99.90
11497;DHT22;5805;51.542;7.230;2023-02-24T12:51:16;7.70;99.90
11497;DHT22;5805;51.542;7.230;2023-02-24T12:53:49;7.70;99.90
11497;DHT22;5805;51.542;7.230;2023-02-24T12:56:25;7.60;99.90
11497;DHT22;5805;51.542;7.230;2023-02-24T12:58:59;7.50;99.90
11497;DHT22;5805;51.542;7.230;2023-02-24T13:01:31;7.50;99.90
11497;DHT22;5805;51.542;7.230;2023-02-24T13:04:10;7.50;99.90
11497;DHT22;5805;51.542;7.230;2023-02-24T13:06:50;7.50;99.90
11497;DHT22;5805;51.542;7.230;2023-02-24T13:09:21;7.50;99.90
11497;DHT22;5805;51.542;7.230;2023-02-24T13:11:55;7.50;99.90
11497;DHT22;5805;51.542;7.230;2023-02-24T13:14:26;7.50;99.90
11497;DHT22;5805;51.542;7.230;2023-02-24T13:17:03;7.50;99.90
11497;DHT22;5805;51.542;7.230;2023-02-24T13:19:29;7.50;99.90
11497;DHT22;5805;51.542;7.230;2023-02-24T13:21:57;7.40;99.90
11497;DHT22;5805;51.542;7.230;2023-02-24T13:24:26;7.40;99.90
11497;DHT22;5805;51.542;7.230;2023-02-24T13:27:03;7.40;99.90
11497;DHT22;5805;51.542;7.230;2023-02-24T13:29:29;7.50;99.90
11497;DHT22;5805;51.542;7.230;2023-02-24T13:31:55;7.50;99.90
11497;DHT22;5805;51.542;7.230;2023-02-24T13:34:30;7.50;99.90
11497;DHT22;5805;51.542;7.230;2023-02-24T13:36:56;7.50;99.90
11497;DHT22;5805;51.542;7.230;2023-02-24T13:39:24;7.50;99.90
11497;DHT22;5805;51.542;7.230;2023-02-24T13:42:05;7.50;99.90
11497;DHT22;5805;51.542;7.230;2023-02-24T13:44:47;7.50;99.90
11497;DHT22;5805;51.542;7.230;2023-02-24T13:50:19;7.50;99.90
11497;DHT22;5805;51.542;7.230;2023-02-24T13:53:07;7.50;99.90
11497;DHT22;5805;51.542;7.230;2023-02-24T13:55:44;7.50;99.90
11497;DHT22;5805;51.542;7.230;2023-02-24T13:58:27;7.40;99.90
11497;DHT22;5805;51.542;7.230;2023-02-24T14:01:05;7.50;99.90
11497;DHT22;5805;51.542;7.230;2023-02-24T14:03:32;7.50;99.90
11497;DHT22;5805;51.542;7.230;2023-02-24T14:05:59;7.50;99.90
11497;DHT22;5805;51.542;7.230;2023-02-24T14:08:33;7.60;99.90
11497;DHT22;5805;51.542;7.230;2023-02-24T14:11:00;7.60;99.90
11497;DHT22;5805;51.542;7.230;2023-02-24T14:13:29;7.60;99.90
11497;DHT22;5805;51.542;7.230;2023-02-24T14:15:55;7.60;99.90
11497;DHT22;5805;51.542;7.230;2023-02-24T14:18:24;7.60;99.90
11497;DHT22;5805;51.542;7.230;2023-02-24T14:20:51;7.70;99.90
11497;DHT22;5805;51.542;7.230;2023-02-24T14:23:20;7.90;99.90
11497;DHT22;5805;51.542;7.230;2023-02-24T14:25:48;7.70;99.90
11497;DHT22;5805;51.542;7.230;2023-02-24T14:28:20;7.70;99.90
11497;DHT22;5805;51.542;7.230;2023-02-24T14:30:52;7.70;99.90
11497;DHT22;5805;51.542;7.230;2023-02-24T14:33:24;7.70;99.90
11497;DHT22;5805;51.542;7.230;2023-02-24T14:35:52;7.70;99.90
11497;DHT22;5805;51.542;7.230;2023-02-24T14:38:30;7.70;99.90
11497;DHT22;5805;51.542;7.230;2023-02-24T14:40:56;7.80;99.90
11497;DHT22;5805;51.542;7.230;2023-02-24T14:43:22;7.80;99.90
11497;DHT22;5805;51.542;7.230;2023-02-24T14:45:50;7.90;99.90
11497;DHT22;5805;51.542;7.230;2023-02-24T14:48:22;7.90;99.90
11497;DHT22;5805;51.542;7.230;2023-02-24T14:50:48;7.80;99.90
11497;DHT22;5805;51.542;7.230;2023-02-24T14:53:16;7.80;99.90
11497;DHT22;5805;51.542;7.230;2023-02-24T14:55:45;7.80;99.90
11497;DHT22;5805;51.542;7.230;2023-02-24T14:58:14;7.90;99.90
11497;DHT22;5805;51.542;7.230;2023-02-24T15:00:45;8.00;99.90
11497;DHT22;5805;51.542;7.230;2023-02-24T15:03:17;8.10;99.90
11497;DHT22;5805;51.542;7.230;2023-02-24T15:05:48;8.20;99.90
11497;DHT22;5805;51.542;7.230;2023-02-24T15:08:26;8.20;99.90
11497;DHT22;5805;51.542;7.230;2023-02-24T15:10:53;8.30;99.90
11497;DHT22;5805;51.542;7.230;2023-02-24T15:13:27;8.30;99.90
11497;DHT22;5805;51.542;7.230;2023-02-24T15:15:53;8.30;99.90
11497;DHT22;5805;51.542;7.230;2023-02-24T15:18:24;8.30;99.90
11497;DHT22;5805;51.542;7.230;2023-02-24T15:20:59;8.20;99.90
11497;DHT22;5805;51.542;7.230;2023-02-24T15:23:26;8.20;99.90
11497;DHT22;5805;51.542;7.230;2023-02-24T15:25:53;8.20;99.90
11497;DHT22;5805;51.542;7.230;2023-02-24T15:28:24;8.20;99.90
11497;DHT22;5805;51.542;7.230;2023-02-24T15:30:58;8.40;99.90
11497;DHT22;5805;51.542;7.230;2023-02-24T15:33:30;8.20;99.90
11497;DHT22;5805;51.542;7.230;2023-02-24T15:35:58;8.20;99.90
11497;DHT22;5805;51.542;7.230;2023-02-24T15:38:29;8.20;99.90
11497;DHT22;5805;51.542;7.230;2023-02-24T15:40:58;8.20;99.90
11497;DHT22;5805;51.542;7.230;2023-02-24T15:43:32;8.30;99.90
11497;DHT22;5805;51.542;7.230;2023-02-24T15:45:58;8.30;99.90
11497;DHT22;5805;51.542;7.230;2023-02-24T15:48:25;8.40;99.90
11497;DHT22;5805;51.542;7.230;2023-02-24T15:50:51;8.50;99.90
11497;DHT22;5805;51.542;7.230;2023-02-24T15:53:18;8.40;99.90
11497;DHT22;5805;51.542;7.230;2023-02-24T15:55:43;8.40;99.90
11497;DHT22;5805;51.542;7.230;2023-02-24T15:58:13;8.30;99.90
11497;DHT22;5805;51.542;7.230;2023-02-24T16:00:40;8.30;99.90
11497;DHT22;5805;51.542;7.230;2023-02-24T16:03:05;8.40;99.90
11497;DHT22;5805;51.542;7.230;2023-02-24T16:05:32;8.40;99.90
11497;DHT22;5805;51.542;7.230;2023-02-24T16:07:58;8.40;99.90
11497;DHT22;5805;51.542;7.230;2023-02-24T16:10:26;8.40;99.90
11497;DHT22;5805;51.542;7.230;2023-02-24T16:12:54;8.30;99.90
11497;DHT22;5805;51.542;7.230;2023-02-24T16:15:26;8.30;99.90
11497;DHT22;5805;51.542;7.230;2023-02-24T16:17:52;8.30;99.90
11497;DHT22;5805;51.542;7.230;2023-02-24T16:20:20;8.30;99.90
11497;DHT22;5805;51.542;7.230;2023-02-24T16:22:47;8.30;99.90